sensor_id;sensor_type;location;lat;lon;timestamp;P1;durP1;ratioP1;P2;durP2;ratioP2
70729;SDS011;58315;53.336;55.932;2022-09-09T00:04:03;15.95;;;4.18;;
70729;SDS011;58315;53.336;55.932;2022-09-09T00:09:30;15.18;;;4.38;;
70729;SDS011;58315;53.336;55.932;2022-09-09T00:12:15;7.10;;;3.65;;
70729;SDS011;58315;53.336;55.932;2022-09-09T00:14:51;8.32;;;3.83;;
70729;SDS011;58315;53.336;55.932;2022-09-09T00:20:05;12.77;;;4.15;;
70729;SDS011;58315;53.336;55.932;2022-09-09T00:22:39;9.93;;;3.97;;
70729;SDS011;58315;53.336;55.932;2022-09-09T00:25:27;11.50;;;3.78;;
70729;SDS011;58315;53.336;55.932;2022-09-09T00:27:59;9.57;;;4.20;;
70729;SDS011;58315;53.336;55.932;2022-09-09T00:30:31;12.77;;;4.25;;
70729;SDS011;58315;53.336;55.932;2022-09-09T00:33:00;10.77;;;3.85;;
70729;SDS011;58315;53.336;55.932;2022-09-09T00:35:41;7.00;;;3.83;;
70729;SDS011;58315;53.336;55.932;2022-09-09T00:38:25;13.82;;;3.80;;
70729;SDS011;58315;53.336;55.932;2022-09-09T00:43:58;8.35;;;3.88;;
70729;SDS011;58315;53.336;55.932;2022-09-09T00:46:37;9.30;;;4.57;;
70729;SDS011;58315;53.336;55.932;2022-09-09T00:49:50;8.07;;;4.03;;
70729;SDS011;58315;53.336;55.932;2022-09-09T00:52:32;11.60;;;3.72;;
70729;SDS011;58315;53.336;55.932;2022-09-09T00:55:15;10.48;;;4.53;;
70729;SDS011;58315;53.336;55.932;2022-09-09T00:57:46;10.02;;;4.05;;
70729;SDS011;58315;53.336;55.932;2022-09-09T01:02:50;7.32;;;3.80;;
70729;SDS011;58315;53.336;55.932;2022-09-09T01:11:20;15.82;;;4.28;;
70729;SDS011;58315;53.336;55.932;2022-09-09T01:13:49;9.00;;;4.13;;
70729;SDS011;58315;53.336;55.932;2022-09-09T01:16:21;6.95;;;4.18;;
70729;SDS011;58315;53.336;55.932;2022-09-09T01:18:49;9.05;;;4.18;;
70729;SDS011;58315;53.336;55.932;2022-09-09T01:21:26;11.45;;;4.30;;
70729;SDS011;58315;53.336;55.932;2022-09-09T01:27:08;9.18;;;4.13;;
70729;SDS011;58315;53.336;55.932;2022-09-09T01:29:36;17.75;;;4.28;;
70729;SDS011;58315;53.336;55.932;2022-09-09T01:32:37;8.73;;;4.32;;
70729;SDS011;58315;53.336;55.932;2022-09-09T01:35:03;7.45;;;3.90;;
70729;SDS011;58315;53.336;55.932;2022-09-09T01:37:33;8.07;;;4.45;;
70729;SDS011;58315;53.336;55.932;2022-09-09T01:39:59;8.52;;;4.25;;
70729;SDS011;58315;53.336;55.932;2022-09-09T01:42:25;10.70;;;4.47;;
70729;SDS011;58315;53.336;55.932;2022-09-09T01:44:51;10.60;;;4.88;;
70729;SDS011;58315;53.336;55.932;2022-09-09T01:47:19;8.23;;;4.13;;
70729;SDS011;58315;53.336;55.932;2022-09-09T01:50:05;8.43;;;4.28;;
70729;SDS011;58315;53.336;55.932;2022-09-09T01:52:33;13.80;;;4.53;;
70729;SDS011;58315;53.336;55.932;2022-09-09T01:55:02;10.25;;;4.45;;
70729;SDS011;58315;53.336;55.932;2022-09-09T01:57:40;14.68;;;4.88;;
70729;SDS011;58315;53.336;55.932;2022-09-09T02:00:13;12.38;;;4.45;;
70729;SDS011;58315;53.336;55.932;2022-09-09T02:06:02;10.82;;;4.60;;
70729;SDS011;58315;53.336;55.932;2022-09-09T02:08:59;10.25;;;3.72;;
70729;SDS011;58315;53.336;55.932;2022-09-09T02:11:29;9.38;;;4.35;;
70729;SDS011;58315;53.336;55.932;2022-09-09T02:14:08;8.52;;;4.13;;
70729;SDS011;58315;53.336;55.932;2022-09-09T02:16:42;17.05;;;4.78;;
70729;SDS011;58315;53.336;55.932;2022-09-09T02:19:15;10.93;;;4.32;;
70729;SDS011;58315;53.336;55.932;2022-09-09T02:22:08;9.25;;;4.50;;
70729;SDS011;58315;53.336;55.932;2022-09-09T02:24:35;8.35;;;4.15;;
70729;SDS011;58315;53.336;55.932;2022-09-09T02:27:12;10.07;;;3.88;;
70729;SDS011;58315;53.336;55.932;2022-09-09T02:29:40;8.10;;;4.03;;
70729;SDS011;58315;53.336;55.932;2022-09-09T02:32:12;13.45;;;3.78;;
70729;SDS011;58315;53.336;55.932;2022-09-09T02:34:47;8.82;;;4.38;;
70729;SDS011;58315;53.336;55.932;2022-09-09T02:37:20;5.82;;;2.97;;
70729;SDS011;58315;53.336;55.932;2022-09-09T02:39:52;11.48;;;4.07;;
70729;SDS011;58315;53.336;55.932;2022-09-09T02:42:20;7.97;;;4.00;;
70729;SDS011;58315;53.336;55.932;2022-09-09T02:44:47;8.50;;;4.38;;
70729;SDS011;58315;53.336;55.932;2022-09-09T02:47:35;8.07;;;4.10;;
70729;SDS011;58315;53.336;55.932;2022-09-09T02:58:17;7.47;;;3.63;;
70729;SDS011;58315;53.336;55.932;2022-09-09T03:00:52;12.52;;;4.07;;
70729;SDS011;58315;53.336;55.932;2022-09-09T03:03:19;8.18;;;3.67;;
70729;SDS011;58315;53.336;55.932;2022-09-09T03:05:48;11.02;;;4.75;;
70729;SDS011;58315;53.336;55.932;2022-09-09T03:08:14;8.43;;;3.78;;
70729;SDS011;58315;53.336;55.932;2022-09-09T03:10:42;8.18;;;4.30;;
70729;SDS011;58315;53.336;55.932;2022-09-09T03:13:09;5.65;;;3.40;;
70729;SDS011;58315;53.336;55.932;2022-09-09T03:15:38;7.00;;;3.83;;
70729;SDS011;58315;53.336;55.932;2022-09-09T03:18:05;7.38;;;3.80;;
70729;SDS011;58315;53.336;55.932;2022-09-09T03:20:32;9.77;;;4.53;;
70729;SDS011;58315;53.336;55.932;2022-09-09T03:22:59;8.13;;;4.18;;
70729;SDS011;58315;53.336;55.932;2022-09-09T03:25:26;8.52;;;3.38;;
70729;SDS011;58315;53.336;55.932;2022-09-09T03:27:53;7.32;;;3.30;;
70729;SDS011;58315;53.336;55.932;2022-09-09T03:30:22;8.80;;;3.60;;
70729;SDS011;58315;53.336;55.932;2022-09-09T03:32:49;8.05;;;3.30;;
70729;SDS011;58315;53.336;55.932;2022-09-09T03:35:16;8.48;;;3.83;;
70729;SDS011;58315;53.336;55.932;2022-09-09T03:37:42;16.60;;;4.05;;
70729;SDS011;58315;53.336;55.932;2022-09-09T03:40:10;7.97;;;3.67;;
70729;SDS011;58315;53.336;55.932;2022-09-09T03:42:36;6.95;;;3.42;;
70729;SDS011;58315;53.336;55.932;2022-09-09T03:45:04;7.57;;;3.55;;
70729;SDS011;58315;53.336;55.932;2022-09-09T03:47:32;8.43;;;3.60;;
70729;SDS011;58315;53.336;55.932;2022-09-09T03:50:04;4.95;;;2.75;;
70729;SDS011;58315;53.336;55.932;2022-09-09T03:52:34;5.97;;;3.22;;
70729;SDS011;58315;53.336;55.932;2022-09-09T03:55:02;6.97;;;3.00;;
70729;SDS011;58315;53.336;55.932;2022-09-09T03:57:28;6.20;;;2.80;;
70729;SDS011;58315;53.336;55.932;2022-09-09T03:59:55;8.07;;;3.05;;
70729;SDS011;58315;53.336;55.932;2022-09-09T04:02:21;7.88;;;2.85;;
70729;SDS011;58315;53.336;55.932;2022-09-09T04:04:48;8.73;;;3.08;;
70729;SDS011;58315;53.336;55.932;2022-09-09T04:07:14;9.82;;;3.00;;
70729;SDS011;58315;53.336;55.932;2022-09-09T04:09:42;9.05;;;2.70;;
70729;SDS011;58315;53.336;55.932;2022-09-09T04:12:08;12.15;;;2.65;;
70729;SDS011;58315;53.336;55.932;2022-09-09T04:17:05;8.77;;;2.45;;
70729;SDS011;58315;53.336;55.932;2022-09-09T04:19:32;8.40;;;2.28;;
70729;SDS011;58315;53.336;55.932;2022-09-09T04:21:58;6.00;;;2.78;;
70729;SDS011;58315;53.336;55.932;2022-09-09T04:24:24;5.85;;;2.80;;
70729;SDS011;58315;53.336;55.932;2022-09-09T04:26:53;7.15;;;2.50;;
70729;SDS011;58315;53.336;55.932;2022-09-09T04:29:19;14.65;;;2.78;;
70729;SDS011;58315;53.336;55.932;2022-09-09T04:31:45;6.03;;;2.60;;
70729;SDS011;58315;53.336;55.932;2022-09-09T04:34:12;7.18;;;2.70;;
70729;SDS011;58315;53.336;55.932;2022-09-09T04:36:39;4.50;;;2.40;;
70729;SDS011;58315;53.336;55.932;2022-09-09T04:39:06;9.88;;;2.47;;
70729;SDS011;58315;53.336;55.932;2022-09-09T04:41:32;9.43;;;2.40;;
70729;SDS011;58315;53.336;55.932;2022-09-09T04:43:58;4.95;;;2.40;;
70729;SDS011;58315;53.336;55.932;2022-09-09T04:46:26;6.80;;;2.28;;
70729;SDS011;58315;53.336;55.932;2022-09-09T04:48:52;5.07;;;2.47;;
70729;SDS011;58315;53.336;55.932;2022-09-09T04:51:20;7.88;;;2.53;;
70729;SDS011;58315;53.336;55.932;2022-09-09T04:53:48;6.57;;;2.58;;
70729;SDS011;58315;53.336;55.932;2022-09-09T04:56:16;7.63;;;2.78;;
70729;SDS011;58315;53.336;55.932;2022-09-09T04:58:52;46.40;;;3.45;;
70729;SDS011;58315;53.336;55.932;2022-09-09T05:01:21;9.97;;;2.20;;
70729;SDS011;58315;53.336;55.932;2022-09-09T05:03:50;6.35;;;2.30;;
70729;SDS011;58315;53.336;55.932;2022-09-09T05:06:21;8.60;;;2.22;;
70729;SDS011;58315;53.336;55.932;2022-09-09T05:08:50;118.10;;;4.88;;
70729;SDS011;58315;53.336;55.932;2022-09-09T05:11:20;19.90;;;2.83;;
70729;SDS011;58315;53.336;55.932;2022-09-09T05:13:53;65.18;;;3.95;;
70729;SDS011;58315;53.336;55.932;2022-09-09T05:16:20;11.43;;;2.80;;
70729;SDS011;58315;53.336;55.932;2022-09-09T05:18:46;5.45;;;2.70;;
70729;SDS011;58315;53.336;55.932;2022-09-09T05:21:13;68.47;;;3.97;;
70729;SDS011;58315;53.336;55.932;2022-09-09T05:23:40;7.25;;;2.65;;
70729;SDS011;58315;53.336;55.932;2022-09-09T05:26:07;41.42;;;3.70;;
70729;SDS011;58315;53.336;55.932;2022-09-09T05:28:37;72.57;;;3.97;;
70729;SDS011;58315;53.336;55.932;2022-09-09T05:31:05;10.68;;;2.92;;
70729;SDS011;58315;53.336;55.932;2022-09-09T05:33:42;9.65;;;3.17;;
70729;SDS011;58315;53.336;55.932;2022-09-09T05:36:12;8.93;;;3.10;;
70729;SDS011;58315;53.336;55.932;2022-09-09T05:38:40;6.40;;;3.08;;
70729;SDS011;58315;53.336;55.932;2022-09-09T05:41:08;8.48;;;2.70;;
70729;SDS011;58315;53.336;55.932;2022-09-09T05:43:36;7.93;;;2.90;;
70729;SDS011;58315;53.336;55.932;2022-09-09T05:46:04;7.13;;;3.08;;
70729;SDS011;58315;53.336;55.932;2022-09-09T05:48:35;7.50;;;3.13;;
70729;SDS011;58315;53.336;55.932;2022-09-09T05:51:04;8.15;;;2.92;;
70729;SDS011;58315;53.336;55.932;2022-09-09T05:53:44;7.18;;;3.05;;
70729;SDS011;58315;53.336;55.932;2022-09-09T05:56:12;5.68;;;2.90;;
70729;SDS011;58315;53.336;55.932;2022-09-09T05:58:45;8.50;;;3.60;;
70729;SDS011;58315;53.336;55.932;2022-09-09T06:01:19;10.40;;;3.10;;
70729;SDS011;58315;53.336;55.932;2022-09-09T06:03:47;5.45;;;3.13;;
70729;SDS011;58315;53.336;55.932;2022-09-09T06:06:19;9.40;;;3.08;;
70729;SDS011;58315;53.336;55.932;2022-09-09T06:08:56;6.65;;;3.15;;
70729;SDS011;58315;53.336;55.932;2022-09-09T06:11:27;7.78;;;3.05;;
70729;SDS011;58315;53.336;55.932;2022-09-09T06:13:58;8.73;;;2.80;;
70729;SDS011;58315;53.336;55.932;2022-09-09T06:16:29;7.18;;;3.10;;
70729;SDS011;58315;53.336;55.932;2022-09-09T06:18:58;8.18;;;2.97;;
70729;SDS011;58315;53.336;55.932;2022-09-09T06:21:29;6.40;;;3.22;;
70729;SDS011;58315;53.336;55.932;2022-09-09T06:23:59;6.57;;;3.00;;
70729;SDS011;58315;53.336;55.932;2022-09-09T06:26:31;11.90;;;3.47;;
70729;SDS011;58315;53.336;55.932;2022-09-09T06:29:00;10.15;;;3.35;;
70729;SDS011;58315;53.336;55.932;2022-09-09T06:31:30;9.57;;;3.50;;
70729;SDS011;58315;53.336;55.932;2022-09-09T06:34:05;8.13;;;2.85;;
70729;SDS011;58315;53.336;55.932;2022-09-09T06:36:35;6.97;;;2.50;;
70729;SDS011;58315;53.336;55.932;2022-09-09T06:39:03;6.07;;;2.42;;
70729;SDS011;58315;53.336;55.932;2022-09-09T06:41:32;8.10;;;2.38;;
70729;SDS011;58315;53.336;55.932;2022-09-09T06:43:59;4.95;;;2.53;;
70729;SDS011;58315;53.336;55.932;2022-09-09T06:46:40;5.82;;;2.88;;
70729;SDS011;58315;53.336;55.932;2022-09-09T06:49:09;8.90;;;2.55;;
70729;SDS011;58315;53.336;55.932;2022-09-09T06:51:36;6.38;;;2.58;;
70729;SDS011;58315;53.336;55.932;2022-09-09T06:54:08;7.47;;;2.70;;
70729;SDS011;58315;53.336;55.932;2022-09-09T06:56:36;6.22;;;2.75;;
70729;SDS011;58315;53.336;55.932;2022-09-09T06:59:10;5.13;;;2.58;;
70729;SDS011;58315;53.336;55.932;2022-09-09T07:01:38;7.68;;;2.22;;
70729;SDS011;58315;53.336;55.932;2022-09-09T07:04:09;8.88;;;2.80;;
70729;SDS011;58315;53.336;55.932;2022-09-09T07:06:39;3.75;;;1.83;;
70729;SDS011;58315;53.336;55.932;2022-09-09T07:09:12;5.93;;;2.60;;
70729;SDS011;58315;53.336;55.932;2022-09-09T07:11:44;4.45;;;2.10;;
70729;SDS011;58315;53.336;55.932;2022-09-09T07:14:13;7.32;;;2.53;;
70729;SDS011;58315;53.336;55.932;2022-09-09T07:16:41;3.63;;;2.03;;
70729;SDS011;58315;53.336;55.932;2022-09-09T07:19:09;3.38;;;2.10;;
70729;SDS011;58315;53.336;55.932;2022-09-09T07:21:36;7.10;;;2.67;;
70729;SDS011;58315;53.336;55.932;2022-09-09T07:24:03;7.13;;;2.53;;
70729;SDS011;58315;53.336;55.932;2022-09-09T07:26:32;7.43;;;2.60;;
70729;SDS011;58315;53.336;55.932;2022-09-09T07:29:01;5.63;;;2.53;;
70729;SDS011;58315;53.336;55.932;2022-09-09T07:31:28;6.05;;;2.38;;
70729;SDS011;58315;53.336;55.932;2022-09-09T07:34:00;5.03;;;2.42;;
70729;SDS011;58315;53.336;55.932;2022-09-09T07:36:27;6.35;;;2.25;;
70729;SDS011;58315;53.336;55.932;2022-09-09T07:38:59;4.28;;;2.20;;
70729;SDS011;58315;53.336;55.932;2022-09-09T07:41:30;5.32;;;2.20;;
70729;SDS011;58315;53.336;55.932;2022-09-09T07:44:14;4.78;;;1.95;;
70729;SDS011;58315;53.336;55.932;2022-09-09T07:46:48;7.90;;;2.70;;
70729;SDS011;58315;53.336;55.932;2022-09-09T07:49:19;8.00;;;2.30;;
70729;SDS011;58315;53.336;55.932;2022-09-09T07:51:46;2.70;;;1.73;;
70729;SDS011;58315;53.336;55.932;2022-09-09T07:54:15;3.95;;;2.30;;
70729;SDS011;58315;53.336;55.932;2022-09-09T07:56:46;8.10;;;2.22;;
70729;SDS011;58315;53.336;55.932;2022-09-09T07:59:12;6.90;;;2.03;;
70729;SDS011;58315;53.336;55.932;2022-09-09T08:01:42;10.27;;;2.72;;
70729;SDS011;58315;53.336;55.932;2022-09-09T08:04:16;8.65;;;2.15;;
70729;SDS011;58315;53.336;55.932;2022-09-09T08:06:52;10.10;;;3.75;;
70729;SDS011;58315;53.336;55.932;2022-09-09T08:09:21;9.57;;;2.63;;
70729;SDS011;58315;53.336;55.932;2022-09-09T08:11:51;4.38;;;1.98;;
70729;SDS011;58315;53.336;55.932;2022-09-09T08:14:17;9.48;;;2.33;;
70729;SDS011;58315;53.336;55.932;2022-09-09T08:16:45;4.78;;;2.45;;
70729;SDS011;58315;53.336;55.932;2022-09-09T08:19:16;5.53;;;2.40;;
70729;SDS011;58315;53.336;55.932;2022-09-09T08:21:44;6.68;;;2.33;;
70729;SDS011;58315;53.336;55.932;2022-09-09T08:24:11;4.35;;;2.20;;
70729;SDS011;58315;53.336;55.932;2022-09-09T08:26:40;3.72;;;2.00;;
70729;SDS011;58315;53.336;55.932;2022-09-09T08:29:09;5.53;;;2.30;;
70729;SDS011;58315;53.336;55.932;2022-09-09T08:31:38;4.47;;;2.60;;
70729;SDS011;58315;53.336;55.932;2022-09-09T08:34:06;3.97;;;2.05;;
70729;SDS011;58315;53.336;55.932;2022-09-09T08:36:36;5.40;;;2.22;;
70729;SDS011;58315;53.336;55.932;2022-09-09T08:39:04;4.93;;;2.33;;
70729;SDS011;58315;53.336;55.932;2022-09-09T08:52:28;6.05;;;2.70;;
70729;SDS011;58315;53.336;55.932;2022-09-09T08:57:28;5.35;;;2.53;;
70729;SDS011;58315;53.336;55.932;2022-09-09T08:59:58;5.95;;;2.92;;
70729;SDS011;58315;53.336;55.932;2022-09-09T09:02:33;7.35;;;2.47;;
70729;SDS011;58315;53.336;55.932;2022-09-09T09:05:23;7.28;;;3.33;;
70729;SDS011;58315;53.336;55.932;2022-09-09T09:10:50;6.32;;;3.00;;
70729;SDS011;58315;53.336;55.932;2022-09-09T09:16:00;4.70;;;2.65;;
70729;SDS011;58315;53.336;55.932;2022-09-09T09:18:35;10.20;;;2.60;;
70729;SDS011;58315;53.336;55.932;2022-09-09T09:21:05;6.97;;;2.65;;
70729;SDS011;58315;53.336;55.932;2022-09-09T09:23:43;5.30;;;2.42;;
70729;SDS011;58315;53.336;55.932;2022-09-09T09:26:19;4.07;;;2.22;;
70729;SDS011;58315;53.336;55.932;2022-09-09T09:28:48;7.35;;;2.47;;
70729;SDS011;58315;53.336;55.932;2022-09-09T09:31:16;5.22;;;2.05;;
70729;SDS011;58315;53.336;55.932;2022-09-09T09:33:47;5.38;;;2.33;;
70729;SDS011;58315;53.336;55.932;2022-09-09T09:38:57;9.38;;;4.50;;
70729;SDS011;58315;53.336;55.932;2022-09-09T09:43:58;3.90;;;2.30;;
70729;SDS011;58315;53.336;55.932;2022-09-09T09:46:27;3.40;;;2.08;;
70729;SDS011;58315;53.336;55.932;2022-09-09T09:48:59;8.23;;;2.75;;
70729;SDS011;58315;53.336;55.932;2022-09-09T09:51:29;5.15;;;2.25;;
70729;SDS011;58315;53.336;55.932;2022-09-09T09:56:39;5.97;;;2.20;;
70729;SDS011;58315;53.336;55.932;2022-09-09T10:04:38;5.93;;;2.60;;
70729;SDS011;58315;53.336;55.932;2022-09-09T10:07:20;6.95;;;2.67;;
70729;SDS011;58315;53.336;55.932;2022-09-09T10:09:56;4.10;;;2.30;;
70729;SDS011;58315;53.336;55.932;2022-09-09T10:26:26;5.40;;;2.70;;
70729;SDS011;58315;53.336;55.932;2022-09-09T10:32:04;12.35;;;2.72;;
70729;SDS011;58315;53.336;55.932;2022-09-09T10:34:49;5.72;;;2.50;;
70729;SDS011;58315;53.336;55.932;2022-09-09T10:42:45;10.43;;;2.70;;
70729;SDS011;58315;53.336;55.932;2022-09-09T10:47:54;6.13;;;3.20;;
70729;SDS011;58315;53.336;55.932;2022-09-09T10:58:35;6.50;;;2.55;;
70729;SDS011;58315;53.336;55.932;2022-09-09T11:01:12;6.13;;;2.45;;
70729;SDS011;58315;53.336;55.932;2022-09-09T11:03:44;5.45;;;2.63;;
70729;SDS011;58315;53.336;55.932;2022-09-09T11:06:20;6.97;;;2.15;;
70729;SDS011;58315;53.336;55.932;2022-09-09T11:08:51;9.05;;;2.40;;
70729;SDS011;58315;53.336;55.932;2022-09-09T11:13:59;8.93;;;2.85;;
70729;SDS011;58315;53.336;55.932;2022-09-09T11:16:38;8.85;;;2.88;;
70729;SDS011;58315;53.336;55.932;2022-09-09T11:22:15;5.10;;;2.70;;
70729;SDS011;58315;53.336;55.932;2022-09-09T11:24:56;6.68;;;2.90;;
70729;SDS011;58315;53.336;55.932;2022-09-09T11:27:36;6.43;;;3.10;;
70729;SDS011;58315;53.336;55.932;2022-09-09T11:30:21;7.60;;;3.17;;
70729;SDS011;58315;53.336;55.932;2022-09-09T11:41:13;9.18;;;3.08;;
70729;SDS011;58315;53.336;55.932;2022-09-09T11:46:08;11.43;;;3.47;;
70729;SDS011;58315;53.336;55.932;2022-09-09T11:48:42;6.53;;;3.30;;
70729;SDS011;58315;53.336;55.932;2022-09-09T11:56:44;10.73;;;3.63;;
70729;SDS011;58315;53.336;55.932;2022-09-09T11:59:21;5.05;;;2.90;;
70729;SDS011;58315;53.336;55.932;2022-09-09T12:01:53;7.78;;;2.83;;
70729;SDS011;58315;53.336;55.932;2022-09-09T12:19:41;8.70;;;3.40;;
70729;SDS011;58315;53.336;55.932;2022-09-09T12:24:48;14.07;;;3.20;;
70729;SDS011;58315;53.336;55.932;2022-09-09T12:27:28;10.18;;;3.85;;
70729;SDS011;58315;53.336;55.932;2022-09-09T12:35:03;12.20;;;3.55;;
70729;SDS011;58315;53.336;55.932;2022-09-09T12:40:23;6.78;;;3.40;;
70729;SDS011;58315;53.336;55.932;2022-09-09T12:42:52;9.95;;;3.67;;
70729;SDS011;58315;53.336;55.932;2022-09-09T12:45:19;10.35;;;3.38;;
70729;SDS011;58315;53.336;55.932;2022-09-09T12:47:48;9.07;;;3.70;;
70729;SDS011;58315;53.336;55.932;2022-09-09T12:50:23;13.10;;;3.85;;
70729;SDS011;58315;53.336;55.932;2022-09-09T12:52:58;10.13;;;4.55;;
70729;SDS011;58315;53.336;55.932;2022-09-09T12:55:30;4.72;;;2.92;;
70729;SDS011;58315;53.336;55.932;2022-09-09T12:57:59;6.82;;;2.95;;
70729;SDS011;58315;53.336;55.932;2022-09-09T13:00:29;3.92;;;2.10;;
70729;SDS011;58315;53.336;55.932;2022-09-09T13:03:00;5.20;;;1.98;;
70729;SDS011;58315;53.336;55.932;2022-09-09T13:05:40;4.20;;;2.13;;
70729;SDS011;58315;53.336;55.932;2022-09-09T13:08:08;4.15;;;1.70;;
70729;SDS011;58315;53.336;55.932;2022-09-09T13:10:37;3.22;;;1.85;;
70729;SDS011;58315;53.336;55.932;2022-09-09T13:13:13;5.38;;;2.45;;
70729;SDS011;58315;53.336;55.932;2022-09-09T13:15:47;7.40;;;2.60;;
70729;SDS011;58315;53.336;55.932;2022-09-09T13:18:27;5.60;;;2.20;;
70729;SDS011;58315;53.336;55.932;2022-09-09T13:20:56;4.75;;;2.13;;
70729;SDS011;58315;53.336;55.932;2022-09-09T13:23:29;3.92;;;2.10;;
70729;SDS011;58315;53.336;55.932;2022-09-09T13:25:59;4.45;;;2.03;;
70729;SDS011;58315;53.336;55.932;2022-09-09T13:28:47;8.95;;;1.85;;
70729;SDS011;58315;53.336;55.932;2022-09-09T13:31:27;3.17;;;1.67;;
70729;SDS011;58315;53.336;55.932;2022-09-09T13:33:55;3.95;;;1.90;;
70729;SDS011;58315;53.336;55.932;2022-09-09T13:36:31;4.57;;;2.10;;
70729;SDS011;58315;53.336;55.932;2022-09-09T13:39:00;4.15;;;2.25;;
70729;SDS011;58315;53.336;55.932;2022-09-09T13:41:42;3.63;;;2.28;;
70729;SDS011;58315;53.336;55.932;2022-09-09T13:44:14;8.90;;;2.15;;
70729;SDS011;58315;53.336;55.932;2022-09-09T13:46:59;3.53;;;2.30;;
70729;SDS011;58315;53.336;55.932;2022-09-09T13:49:30;7.93;;;2.65;;
70729;SDS011;58315;53.336;55.932;2022-09-09T13:52:11;4.88;;;2.60;;
70729;SDS011;58315;53.336;55.932;2022-09-09T13:54:42;4.90;;;2.80;;
70729;SDS011;58315;53.336;55.932;2022-09-09T13:57:16;7.85;;;3.40;;
70729;SDS011;58315;53.336;55.932;2022-09-09T13:59:46;9.60;;;3.78;;
70729;SDS011;58315;53.336;55.932;2022-09-09T14:02:14;11.48;;;4.68;;
70729;SDS011;58315;53.336;55.932;2022-09-09T14:04:41;9.15;;;4.43;;
70729;SDS011;58315;53.336;55.932;2022-09-09T14:07:11;7.55;;;4.50;;
70729;SDS011;58315;53.336;55.932;2022-09-09T14:09:39;14.05;;;4.85;;
70729;SDS011;58315;53.336;55.932;2022-09-09T14:12:08;6.63;;;3.38;;
70729;SDS011;58315;53.336;55.932;2022-09-09T14:17:05;8.65;;;3.40;;
70729;SDS011;58315;53.336;55.932;2022-09-09T14:19:31;5.50;;;2.92;;
70729;SDS011;58315;53.336;55.932;2022-09-09T14:21:57;7.55;;;2.85;;
70729;SDS011;58315;53.336;55.932;2022-09-09T14:24:23;3.85;;;2.40;;
70729;SDS011;58315;53.336;55.932;2022-09-09T14:26:50;4.63;;;2.50;;
70729;SDS011;58315;53.336;55.932;2022-09-09T14:29:16;6.05;;;2.40;;
70729;SDS011;58315;53.336;55.932;2022-09-09T14:31:43;5.28;;;2.50;;
70729;SDS011;58315;53.336;55.932;2022-09-09T14:34:09;5.07;;;2.00;;
70729;SDS011;58315;53.336;55.932;2022-09-09T14:36:39;5.57;;;2.40;;
70729;SDS011;58315;53.336;55.932;2022-09-09T14:39:06;4.85;;;1.98;;
70729;SDS011;58315;53.336;55.932;2022-09-09T14:41:33;4.10;;;2.30;;
70729;SDS011;58315;53.336;55.932;2022-09-09T14:43:59;9.52;;;2.70;;
70729;SDS011;58315;53.336;55.932;2022-09-09T14:46:25;4.13;;;1.90;;
70729;SDS011;58315;53.336;55.932;2022-09-09T14:48:52;8.35;;;2.80;;
70729;SDS011;58315;53.336;55.932;2022-09-09T14:51:22;4.45;;;2.30;;
70729;SDS011;58315;53.336;55.932;2022-09-09T14:53:53;9.88;;;2.47;;
70729;SDS011;58315;53.336;55.932;2022-09-09T14:56:24;8.95;;;2.40;;
70729;SDS011;58315;53.336;55.932;2022-09-09T14:58:53;4.93;;;2.10;;
70729;SDS011;58315;53.336;55.932;2022-09-09T15:01:20;3.67;;;2.05;;
70729;SDS011;58315;53.336;55.932;2022-09-09T15:03:54;4.28;;;2.35;;
70729;SDS011;58315;53.336;55.932;2022-09-09T15:06:27;5.00;;;2.20;;
70729;SDS011;58315;53.336;55.932;2022-09-09T15:08:56;7.43;;;2.35;;
70729;SDS011;58315;53.336;55.932;2022-09-09T15:11:29;11.73;;;2.55;;
70729;SDS011;58315;53.336;55.932;2022-09-09T15:13:57;4.32;;;2.30;;
70729;SDS011;58315;53.336;55.932;2022-09-09T15:16:24;5.50;;;2.60;;
70729;SDS011;58315;53.336;55.932;2022-09-09T15:18:55;6.38;;;3.13;;
70729;SDS011;58315;53.336;55.932;2022-09-09T15:21:30;7.43;;;2.88;;
70729;SDS011;58315;53.336;55.932;2022-09-09T15:24:05;5.50;;;2.58;;
70729;SDS011;58315;53.336;55.932;2022-09-09T15:26:38;8.55;;;2.60;;
70729;SDS011;58315;53.336;55.932;2022-09-09T15:29:05;4.45;;;2.20;;
70729;SDS011;58315;53.336;55.932;2022-09-09T15:31:36;6.63;;;2.65;;
70729;SDS011;58315;53.336;55.932;2022-09-09T15:34:09;7.47;;;2.90;;
70729;SDS011;58315;53.336;55.932;2022-09-09T15:36:38;6.28;;;2.53;;
70729;SDS011;58315;53.336;55.932;2022-09-09T15:39:07;4.65;;;2.60;;
70729;SDS011;58315;53.336;55.932;2022-09-09T15:41:38;5.65;;;2.75;;
70729;SDS011;58315;53.336;55.932;2022-09-09T15:44:05;6.68;;;2.80;;
70729;SDS011;58315;53.336;55.932;2022-09-09T15:46:35;5.88;;;2.75;;
70729;SDS011;58315;53.336;55.932;2022-09-09T15:49:04;6.00;;;2.55;;
70729;SDS011;58315;53.336;55.932;2022-09-09T15:51:38;6.40;;;2.60;;
70729;SDS011;58315;53.336;55.932;2022-09-09T15:54:07;4.72;;;2.53;;
70729;SDS011;58315;53.336;55.932;2022-09-09T15:56:34;4.93;;;2.63;;
70729;SDS011;58315;53.336;55.932;2022-09-09T15:59:04;6.95;;;3.20;;
70729;SDS011;58315;53.336;55.932;2022-09-09T16:01:30;5.78;;;2.72;;
70729;SDS011;58315;53.336;55.932;2022-09-09T16:03:58;5.07;;;2.53;;
70729;SDS011;58315;53.336;55.932;2022-09-09T16:06:25;8.13;;;2.78;;
70729;SDS011;58315;53.336;55.932;2022-09-09T16:08:54;9.93;;;4.00;;
70729;SDS011;58315;53.336;55.932;2022-09-09T16:11:24;8.38;;;3.28;;
70729;SDS011;58315;53.336;55.932;2022-09-09T16:13:53;7.35;;;3.03;;
70729;SDS011;58315;53.336;55.932;2022-09-09T16:16:21;7.18;;;3.40;;
70729;SDS011;58315;53.336;55.932;2022-09-09T16:18:50;6.15;;;3.38;;
70729;SDS011;58315;53.336;55.932;2022-09-09T16:21:44;7.20;;;2.67;;
70729;SDS011;58315;53.336;55.932;2022-09-09T16:24:13;7.00;;;2.85;;
70729;SDS011;58315;53.336;55.932;2022-09-09T16:26:42;5.70;;;2.97;;
70729;SDS011;58315;53.336;55.932;2022-09-09T16:29:12;5.28;;;2.78;;
70729;SDS011;58315;53.336;55.932;2022-09-09T16:31:39;11.85;;;2.83;;
70729;SDS011;58315;53.336;55.932;2022-09-09T16:34:06;6.50;;;3.17;;
70729;SDS011;58315;53.336;55.932;2022-09-09T16:36:34;10.95;;;3.20;;
70729;SDS011;58315;53.336;55.932;2022-09-09T16:39:03;7.07;;;2.70;;
70729;SDS011;58315;53.336;55.932;2022-09-09T16:41:34;7.97;;;2.70;;
70729;SDS011;58315;53.336;55.932;2022-09-09T16:44:05;10.02;;;2.70;;
70729;SDS011;58315;53.336;55.932;2022-09-09T16:46:37;7.82;;;4.47;;
70729;SDS011;58315;53.336;55.932;2022-09-09T16:49:05;17.23;;;7.60;;
70729;SDS011;58315;53.336;55.932;2022-09-09T16:51:35;26.02;;;8.65;;
70729;SDS011;58315;53.336;55.932;2022-09-09T16:54:04;18.63;;;8.77;;
70729;SDS011;58315;53.336;55.932;2022-09-09T16:56:33;19.42;;;8.75;;
70729;SDS011;58315;53.336;55.932;2022-09-09T16:59:05;26.52;;;9.73;;
70729;SDS011;58315;53.336;55.932;2022-09-09T17:01:34;23.60;;;10.18;;
70729;SDS011;58315;53.336;55.932;2022-09-09T17:04:07;18.10;;;9.18;;
70729;SDS011;58315;53.336;55.932;2022-09-09T17:06:35;23.20;;;7.78;;
70729;SDS011;58315;53.336;55.932;2022-09-09T17:09:07;19.23;;;8.20;;
70729;SDS011;58315;53.336;55.932;2022-09-09T17:11:36;13.85;;;6.65;;
70729;SDS011;58315;53.336;55.932;2022-09-09T17:14:04;13.07;;;6.30;;
70729;SDS011;58315;53.336;55.932;2022-09-09T17:16:32;17.05;;;7.15;;
70729;SDS011;58315;53.336;55.932;2022-09-09T17:18:59;20.85;;;6.35;;
70729;SDS011;58315;53.336;55.932;2022-09-09T17:21:32;15.57;;;6.50;;
70729;SDS011;58315;53.336;55.932;2022-09-09T17:23:58;15.85;;;7.13;;
70729;SDS011;58315;53.336;55.932;2022-09-09T17:26:26;16.42;;;7.55;;